sensor_id;sensor_type;location;lat;lon;timestamp;pressure;altitude;pressure_sealevel;temperature;humidity
25156;BME280;71253;51.496;7.606;2023-07-16T00:01:02;99533.22;;;19.20;67.82
25156;BME280;71253;51.496;7.606;2023-07-16T00:06:08;99542.88;;;19.20;68.43
25156;BME280;71253;51.496;7.606;2023-07-16T00:11:10;99539.31;;;19.21;68.74
25156;BME280;71253;51.496;7.606;2023-07-16T00:16:13;99543.25;;;19.10;69.11
25156;BME280;71253;51.496;7.606;2023-07-16T00:21:17;99554.59;;;19.11;69.18
25156;BME280;71253;51.496;7.606;2023-07-16T00:26:19;99565.19;;;19.08;69.75
25156;BME280;71253;51.496;7.606;2023-07-16T00:31:21;99572.00;;;19.12;69.57
25156;BME280;71253;51.496;7.606;2023-07-16T00:36:24;99569.66;;;19.06;69.76
25156;BME280;71253;51.496;7.606;2023-07-16T00:41:26;99573.13;;;19.06;69.72
25156;BME280;71253;51.496;7.606;2023-07-16T00:46:28;99583.28;;;18.94;70.21
25156;BME280;71253;51.496;7.606;2023-07-16T00:51:30;99573.34;;;18.80;70.96
25156;BME280;71253;51.496;7.606;2023-07-16T00:56:31;99585.59;;;18.79;70.79
25156;BME280;71253;51.496;7.606;2023-07-16T01:01:36;99573.91;;;18.66;71.27
25156;BME280;71253;51.496;7.606;2023-07-16T01:06:41;99576.41;;;18.69;70.19
25156;BME280;71253;51.496;7.606;2023-07-16T01:11:44;99580.50;;;18.54;71.13
25156;BME280;71253;51.496;7.606;2023-07-16T01:16:47;99588.88;;;18.40;71.45
25156;BME280;71253;51.496;7.606;2023-07-16T01:32:34;99586.25;;;18.19;71.50
25156;BME280;71253;51.496;7.606;2023-07-16T01:37:37;99585.69;;;18.10;71.93
25156;BME280;71253;51.496;7.606;2023-07-16T01:42:40;99582.50;;;18.02;71.40
25156;BME280;71253;51.496;7.606;2023-07-16T01:52:48;99605.75;;;17.86;71.81
25156;BME280;71253;51.496;7.606;2023-07-16T01:57:51;99612.38;;;17.73;71.64
25156;BME280;71253;51.496;7.606;2023-07-16T02:02:54;99608.50;;;17.83;70.79
25156;BME280;71253;51.496;7.606;2023-07-16T02:07:56;99621.41;;;17.63;71.97
25156;BME280;71253;51.496;7.606;2023-07-16T02:12:57;99619.06;;;17.55;72.13
25156;BME280;71253;51.496;7.606;2023-07-16T02:17:59;99631.06;;;17.61;72.45
25156;BME280;71253;51.496;7.606;2023-07-16T02:23:01;99625.47;;;17.47;73.95
25156;BME280;71253;51.496;7.606;2023-07-16T02:28:05;99634.25;;;17.44;74.79
25156;BME280;71253;51.496;7.606;2023-07-16T02:33:13;99637.09;;;17.38;75.37
25156;BME280;71253;51.496;7.606;2023-07-16T02:38:17;99647.63;;;17.37;75.88
25156;BME280;71253;51.496;7.606;2023-07-16T02:43:19;99646.97;;;17.30;76.35
25156;BME280;71253;51.496;7.606;2023-07-16T02:48:23;99661.00;;;17.27;76.44
25156;BME280;71253;51.496;7.606;2023-07-16T02:53:25;99653.22;;;17.26;76.84
25156;BME280;71253;51.496;7.606;2023-07-16T02:58:28;99659.06;;;17.32;76.32
25156;BME280;71253;51.496;7.606;2023-07-16T03:03:31;99665.13;;;17.34;76.06
25156;BME280;71253;51.496;7.606;2023-07-16T03:08:34;99667.06;;;17.28;76.00
25156;BME280;71253;51.496;7.606;2023-07-16T03:13:36;99674.03;;;17.29;75.63
25156;BME280;71253;51.496;7.606;2023-07-16T03:18:39;99682.97;;;17.22;75.79
25156;BME280;71253;51.496;7.606;2023-07-16T03:23:44;99692.16;;;17.33;74.80
25156;BME280;71253;51.496;7.606;2023-07-16T03:28:45;99683.44;;;17.34;74.43
25156;BME280;71253;51.496;7.606;2023-07-16T03:33:52;99695.47;;;17.39;73.64
25156;BME280;71253;51.496;7.606;2023-07-16T03:39:00;99696.59;;;17.31;72.71
25156;BME280;71253;51.496;7.606;2023-07-16T03:44:03;99698.28;;;17.32;71.91
25156;BME280;71253;51.496;7.606;2023-07-16T03:49:08;99703.28;;;17.40;71.41
25156;BME280;71253;51.496;7.606;2023-07-16T03:54:10;99720.41;;;17.49;70.01
25156;BME280;71253;51.496;7.606;2023-07-16T03:59:12;99724.56;;;17.29;70.54
25156;BME280;71253;51.496;7.606;2023-07-16T04:04:14;99731.69;;;17.24;70.53
25156;BME280;71253;51.496;7.606;2023-07-16T04:09:16;99734.41;;;17.21;69.26
25156;BME280;71253;51.496;7.606;2023-07-16T04:14:18;99755.25;;;17.23;69.26
25156;BME280;71253;51.496;7.606;2023-07-16T04:19:20;99744.09;;;17.18;66.82
25156;BME280;71253;51.496;7.606;2023-07-16T04:24:27;99748.53;;;17.16;66.09
25156;BME280;71253;51.496;7.606;2023-07-16T04:29:30;99749.38;;;17.16;65.35
25156;BME280;71253;51.496;7.606;2023-07-16T04:34:31;99756.22;;;17.20;65.56
25156;BME280;71253;51.496;7.606;2023-07-16T04:39:33;99766.09;;;17.11;66.22
25156;BME280;71253;51.496;7.606;2023-07-16T04:44:38;99766.81;;;17.16;66.32
25156;BME280;71253;51.496;7.606;2023-07-16T04:49:42;99769.28;;;17.20;65.81
25156;BME280;71253;51.496;7.606;2023-07-16T04:54:49;99777.00;;;17.25;65.29
25156;BME280;71253;51.496;7.606;2023-07-16T04:59:53;99782.03;;;17.31;65.52
25156;BME280;71253;51.496;7.606;2023-07-16T05:04:59;99792.34;;;17.35;64.86
25156;BME280;71253;51.496;7.606;2023-07-16T05:10:02;99790.38;;;17.42;64.14
25156;BME280;71253;51.496;7.606;2023-07-16T05:15:07;99784.97;;;17.48;63.40
25156;BME280;71253;51.496;7.606;2023-07-16T05:20:11;99802.84;;;17.62;63.55
25156;BME280;71253;51.496;7.606;2023-07-16T05:25:13;99803.72;;;17.89;60.90
25156;BME280;71253;51.496;7.606;2023-07-16T05:30:16;99813.28;;;18.15;59.75
25156;BME280;71253;51.496;7.606;2023-07-16T05:35:27;99821.94;;;18.42;59.66
25156;BME280;71253;51.496;7.606;2023-07-16T05:40:30;99825.13;;;18.75;58.92
25156;BME280;71253;51.496;7.606;2023-07-16T05:45:37;99814.84;;;18.71;58.32
25156;BME280;71253;51.496;7.606;2023-07-16T05:50:54;99826.81;;;19.23;57.69
25156;BME280;71253;51.496;7.606;2023-07-16T05:55:57;99833.81;;;19.23;56.83
25156;BME280;71253;51.496;7.606;2023-07-16T06:01:10;99846.59;;;19.32;56.82
25156;BME280;71253;51.496;7.606;2023-07-16T06:06:22;99830.84;;;19.32;56.20
25156;BME280;71253;51.496;7.606;2023-07-16T06:11:26;99845.56;;;19.36;55.54
25156;BME280;71253;51.496;7.606;2023-07-16T06:16:27;99852.13;;;19.01;56.16
25156;BME280;71253;51.496;7.606;2023-07-16T06:21:34;99854.41;;;18.86;56.79
25156;BME280;71253;51.496;7.606;2023-07-16T06:26:38;99861.81;;;18.75;56.49
25156;BME280;71253;51.496;7.606;2023-07-16T06:31:59;99860.38;;;19.37;55.38
25156;BME280;71253;51.496;7.606;2023-07-16T06:37:03;99864.63;;;20.47;50.72
25156;BME280;71253;51.496;7.606;2023-07-16T06:42:22;99864.47;;;21.10;49.74
25156;BME280;71253;51.496;7.606;2023-07-16T06:47:28;99865.59;;;19.60;52.47
25156;BME280;71253;51.496;7.606;2023-07-16T06:52:38;99871.91;;;19.33;53.06
25156;BME280;71253;51.496;7.606;2023-07-16T06:57:49;99857.75;;;19.37;52.25
25156;BME280;71253;51.496;7.606;2023-07-16T07:02:54;99872.88;;;19.30;53.22
25156;BME280;71253;51.496;7.606;2023-07-16T07:08:03;99878.47;;;19.88;51.21
25156;BME280;71253;51.496;7.606;2023-07-16T07:13:05;99867.25;;;20.68;48.54
25156;BME280;71253;51.496;7.606;2023-07-16T07:18:06;99877.50;;;21.32;48.09
25156;BME280;71253;51.496;7.606;2023-07-16T07:23:08;99874.53;;;21.76;45.57
25156;BME280;71253;51.496;7.606;2023-07-16T07:28:10;99871.66;;;20.86;47.27
25156;BME280;71253;51.496;7.606;2023-07-16T07:33:12;99875.91;;;20.70;49.13
25156;BME280;71253;51.496;7.606;2023-07-16T07:38:14;99885.22;;;20.36;49.39
25156;BME280;71253;51.496;7.606;2023-07-16T07:43:15;99882.81;;;20.72;47.42
25156;BME280;71253;51.496;7.606;2023-07-16T07:48:17;99886.03;;;22.10;45.08
25156;BME280;71253;51.496;7.606;2023-07-16T07:53:19;99883.47;;;22.60;43.27
25156;BME280;71253;51.496;7.606;2023-07-16T07:58:21;99886.06;;;22.44;44.06
25156;BME280;71253;51.496;7.606;2023-07-16T08:03:22;99894.06;;;22.93;43.59
25156;BME280;71253;51.496;7.606;2023-07-16T08:08:24;99886.31;;;21.86;43.80
25156;BME280;71253;51.496;7.606;2023-07-16T08:13:26;99893.19;;;22.60;42.37
25156;BME280;71253;51.496;7.606;2023-07-16T08:18:27;99906.88;;;23.01;41.02
25156;BME280;71253;51.496;7.606;2023-07-16T08:23:29;99909.19;;;22.03;41.90
25156;BME280;71253;51.496;7.606;2023-07-16T08:28:31;99908.38;;;22.89;41.44
25156;BME280;71253;51.496;7.606;2023-07-16T08:33:32;99908.84;;;22.11;41.54
25156;BME280;71253;51.496;7.606;2023-07-16T08:38:34;99915.34;;;22.55;41.66
25156;BME280;71253;51.496;7.606;2023-07-16T08:43:36;99916.63;;;22.99;40.41
25156;BME280;71253;51.496;7.606;2023-07-16T08:48:40;99916.88;;;24.52;37.45
25156;BME280;71253;51.496;7.606;2023-07-16T08:53:42;99924.16;;;25.49;34.90
25156;BME280;71253;51.496;7.606;2023-07-16T08:58:47;99931.75;;;24.98;35.86
25156;BME280;71253;51.496;7.606;2023-07-16T09:03:50;99938.69;;;25.29;35.12
25156;BME280;71253;51.496;7.606;2023-07-16T09:08:53;99926.50;;;25.12;35.98
25156;BME280;71253;51.496;7.606;2023-07-16T09:13:55;99935.53;;;24.79;35.31
25156;BME280;71253;51.496;7.606;2023-07-16T09:19:05;99926.84;;;23.22;38.83
25156;BME280;71253;51.496;7.606;2023-07-16T09:24:07;99922.41;;;23.23;39.32
25156;BME280;71253;51.496;7.606;2023-07-16T09:29:09;99920.56;;;26.18;34.35
25156;BME280;71253;51.496;7.606;2023-07-16T09:34:11;99936.28;;;26.21;32.29
25156;BME280;71253;51.496;7.606;2023-07-16T09:39:18;99942.78;;;25.76;34.88
25156;BME280;71253;51.496;7.606;2023-07-16T09:44:31;99941.69;;;25.51;34.41
25156;BME280;71253;51.496;7.606;2023-07-16T09:49:37;99942.72;;;24.91;35.25
25156;BME280;71253;51.496;7.606;2023-07-16T09:54:39;99948.31;;;25.30;36.62
25156;BME280;71253;51.496;7.606;2023-07-16T09:59:42;99948.88;;;23.37;39.17
25156;BME280;71253;51.496;7.606;2023-07-16T10:04:44;99957.72;;;24.77;36.14
25156;BME280;71253;51.496;7.606;2023-07-16T10:09:54;99940.34;;;24.87;35.30
25156;BME280;71253;51.496;7.606;2023-07-16T10:14:56;99932.72;;;25.25;34.94
25156;BME280;71253;51.496;7.606;2023-07-16T10:20:02;99937.56;;;24.60;36.14
25156;BME280;71253;51.496;7.606;2023-07-16T10:30:12;99954.47;;;27.31;30.53
25156;BME280;71253;51.496;7.606;2023-07-16T10:35:14;99959.91;;;24.99;34.82
25156;BME280;71253;51.496;7.606;2023-07-16T10:40:18;99955.75;;;24.50;36.16
25156;BME280;71253;51.496;7.606;2023-07-16T10:45:20;99959.75;;;25.30;35.24
25156;BME280;71253;51.496;7.606;2023-07-16T10:50:22;99964.13;;;26.93;33.51
25156;BME280;71253;51.496;7.606;2023-07-16T10:55:26;99969.44;;;26.81;32.20
25156;BME280;71253;51.496;7.606;2023-07-16T11:00:28;99966.13;;;26.77;32.67
25156;BME280;71253;51.496;7.606;2023-07-16T11:05:30;99965.44;;;24.35;37.99
25156;BME280;71253;51.496;7.606;2023-07-16T11:10:32;99967.09;;;27.27;31.85
25156;BME280;71253;51.496;7.606;2023-07-16T11:15:34;99960.78;;;25.56;34.29
25156;BME280;71253;51.496;7.606;2023-07-16T11:20:36;99972.66;;;24.32;36.89
25156;BME280;71253;51.496;7.606;2023-07-16T11:25:45;99977.53;;;24.39;37.03
25156;BME280;71253;51.496;7.606;2023-07-16T11:30:47;99987.53;;;25.80;33.29
25156;BME280;71253;51.496;7.606;2023-07-16T11:35:49;99989.13;;;26.64;32.52
25156;BME280;71253;51.496;7.606;2023-07-16T11:40:51;99990.38;;;28.46;30.26
25156;BME280;71253;51.496;7.606;2023-07-16T11:45:52;99993.25;;;26.42;34.38
25156;BME280;71253;51.496;7.606;2023-07-16T11:50:57;99992.72;;;24.96;35.61
25156;BME280;71253;51.496;7.606;2023-07-16T11:55:59;99990.72;;;27.81;31.94
25156;BME280;71253;51.496;7.606;2023-07-16T12:01:01;99993.88;;;27.11;31.46
25156;BME280;71253;51.496;7.606;2023-07-16T12:06:28;100004.25;;;25.95;35.82
25156;BME280;71253;51.496;7.606;2023-07-16T12:11:44;100002.41;;;26.37;32.97
25156;BME280;71253;51.496;7.606;2023-07-16T12:16:58;99998.44;;;24.44;37.20
25156;BME280;71253;51.496;7.606;2023-07-16T12:22:29;99994.44;;;25.68;36.27
25156;BME280;71253;51.496;7.606;2023-07-16T12:27:31;99997.38;;;26.86;33.66
25156;BME280;71253;51.496;7.606;2023-07-16T12:32:32;99988.53;;;27.75;32.05
25156;BME280;71253;51.496;7.606;2023-07-16T12:37:34;99998.34;;;27.23;32.72
25156;BME280;71253;51.496;7.606;2023-07-16T12:42:37;100000.88;;;25.64;35.63
25156;BME280;71253;51.496;7.606;2023-07-16T12:47:38;100009.38;;;24.38;37.58
25156;BME280;71253;51.496;7.606;2023-07-16T12:52:40;100006.47;;;23.79;38.76
25156;BME280;71253;51.496;7.606;2023-07-16T12:57:42;100013.00;;;25.83;35.31
25156;BME280;71253;51.496;7.606;2023-07-16T13:02:43;100019.59;;;27.23;33.30
25156;BME280;71253;51.496;7.606;2023-07-16T13:07:45;100015.03;;;26.06;34.31
25156;BME280;71253;51.496;7.606;2023-07-16T13:12:48;100019.06;;;24.53;36.77
25156;BME280;71253;51.496;7.606;2023-07-16T13:17:50;100023.16;;;26.03;34.43
25156;BME280;71253;51.496;7.606;2023-07-16T13:22:52;100024.06;;;25.47;35.33
25156;BME280;71253;51.496;7.606;2023-07-16T13:27:54;100029.56;;;26.55;33.91
25156;BME280;71253;51.496;7.606;2023-07-16T13:32:56;100023.31;;;28.56;31.59
25156;BME280;71253;51.496;7.606;2023-07-16T13:38:33;100028.78;;;25.70;35.17
25156;BME280;71253;51.496;7.606;2023-07-16T13:43:40;100030.03;;;24.61;38.45
25156;BME280;71253;51.496;7.606;2023-07-16T13:48:42;100023.22;;;27.10;32.92
25156;BME280;71253;51.496;7.606;2023-07-16T13:53:51;100014.16;;;29.07;30.27
25156;BME280;71253;51.496;7.606;2023-07-16T13:58:56;100034.16;;;28.29;31.29
25156;BME280;71253;51.496;7.606;2023-07-16T14:04:14;100030.00;;;27.52;31.37
25156;BME280;71253;51.496;7.606;2023-07-16T14:09:22;100040.38;;;27.04;32.57
25156;BME280;71253;51.496;7.606;2023-07-16T14:14:24;100034.72;;;25.16;35.87
25156;BME280;71253;51.496;7.606;2023-07-16T14:19:26;100036.13;;;26.35;34.58
25156;BME280;71253;51.496;7.606;2023-07-16T14:24:28;100034.38;;;27.15;31.69
25156;BME280;71253;51.496;7.606;2023-07-16T14:29:29;100028.53;;;25.75;34.76
25156;BME280;71253;51.496;7.606;2023-07-16T14:34:31;100031.31;;;24.70;37.46
25156;BME280;71253;51.496;7.606;2023-07-16T14:39:32;100025.75;;;25.19;35.30
25156;BME280;71253;51.496;7.606;2023-07-16T14:44:34;100033.06;;;25.73;35.21
25156;BME280;71253;51.496;7.606;2023-07-16T14:49:37;100037.03;;;25.51;36.21
25156;BME280;71253;51.496;7.606;2023-07-16T14:54:38;100028.50;;;24.87;36.08
25156;BME280;71253;51.496;7.606;2023-07-16T14:59:40;100033.13;;;24.84;36.83
25156;BME280;71253;51.496;7.606;2023-07-16T15:04:42;100037.22;;;24.59;36.68
25156;BME280;71253;51.496;7.606;2023-07-16T15:09:43;100035.06;;;24.96;37.91
25156;BME280;71253;51.496;7.606;2023-07-16T15:14:45;100029.28;;;25.77;34.78
25156;BME280;71253;51.496;7.606;2023-07-16T15:19:47;100033.63;;;25.63;34.96
25156;BME280;71253;51.496;7.606;2023-07-16T15:24:49;100030.06;;;26.87;33.07
25156;BME280;71253;51.496;7.606;2023-07-16T15:29:51;100024.41;;;26.79;32.52
25156;BME280;71253;51.496;7.606;2023-07-16T15:34:52;100026.06;;;27.45;32.36
25156;BME280;71253;51.496;7.606;2023-07-16T15:39:54;100038.16;;;26.58;33.68
25156;BME280;71253;51.496;7.606;2023-07-16T15:44:56;100037.03;;;24.92;36.78
25156;BME280;71253;51.496;7.606;2023-07-16T15:49:57;100032.28;;;24.22;37.54
25156;BME280;71253;51.496;7.606;2023-07-16T15:54:59;100036.66;;;24.99;37.50
25156;BME280;71253;51.496;7.606;2023-07-16T16:00:01;100031.00;;;25.78;35.59
25156;BME280;71253;51.496;7.606;2023-07-16T16:05:15;100038.25;;;24.87;36.37
25156;BME280;71253;51.496;7.606;2023-07-16T16:10:19;100033.69;;;24.75;37.24
25156;BME280;71253;51.496;7.606;2023-07-16T16:15:24;100021.78;;;24.52;39.33
25156;BME280;71253;51.496;7.606;2023-07-16T16:20:26;100022.69;;;24.66;37.10
25156;BME280;71253;51.496;7.606;2023-07-16T16:25:31;100027.06;;;24.52;38.73
25156;BME280;71253;51.496;7.606;2023-07-16T16:30:34;100027.34;;;25.22;37.54
25156;BME280;71253;51.496;7.606;2023-07-16T16:35:41;100030.00;;;25.64;37.06
25156;BME280;71253;51.496;7.606;2023-07-16T16:40:46;100026.41;;;25.08;36.93
25156;BME280;71253;51.496;7.606;2023-07-16T16:45:47;100027.25;;;24.79;37.55
25156;BME280;71253;51.496;7.606;2023-07-16T16:50:49;100027.72;;;23.94;38.32
25156;BME280;71253;51.496;7.606;2023-07-16T16:55:51;100037.22;;;23.47;39.79
25156;BME280;71253;51.496;7.606;2023-07-16T17:00:53;100035.91;;;23.56;40.19
25156;BME280;71253;51.496;7.606;2023-07-16T17:05:55;100037.50;;;23.58;40.71
25156;BME280;71253;51.496;7.606;2023-07-16T17:10:57;100026.00;;;23.59;39.32
25156;BME280;71253;51.496;7.606;2023-07-16T17:15:58;100038.25;;;23.78;39.94
25156;BME280;71253;51.496;7.606;2023-07-16T17:21:00;100035.25;;;23.68;41.75
25156;BME280;71253;51.496;7.606;2023-07-16T17:26:02;100040.56;;;23.18;41.96
25156;BME280;71253;51.496;7.606;2023-07-16T17:31:03;100032.94;;;22.94;41.67
25156;BME280;71253;51.496;7.606;2023-07-16T17:36:08;100035.25;;;22.83;42.34
25156;BME280;71253;51.496;7.606;2023-07-16T17:41:10;100037.00;;;22.84;43.75
25156;BME280;71253;51.496;7.606;2023-07-16T17:46:12;100035.03;;;22.70;43.65
25156;BME280;71253;51.496;7.606;2023-07-16T17:51:14;100038.38;;;22.56;43.37
25156;BME280;71253;51.496;7.606;2023-07-16T17:56:18;100032.56;;;22.31;44.00
25156;BME280;71253;51.496;7.606;2023-07-16T18:01:19;100037.44;;;22.21;44.87
25156;BME280;71253;51.496;7.606;2023-07-16T18:06:24;100040.91;;;22.03;44.91
25156;BME280;71253;51.496;7.606;2023-07-16T18:11:29;100036.56;;;21.83;45.98
25156;BME280;71253;51.496;7.606;2023-07-16T18:16:31;100047.81;;;21.68;47.07
25156;BME280;71253;51.496;7.606;2023-07-16T18:21:35;100048.84;;;21.45;47.86
25156;BME280;71253;51.496;7.606;2023-07-16T18:26:37;100053.00;;;21.30;48.58
25156;BME280;71253;51.496;7.606;2023-07-16T18:31:38;100062.47;;;21.14;49.91
25156;BME280;71253;51.496;7.606;2023-07-16T18:36:42;100065.53;;;21.03;50.50
25156;BME280;71253;51.496;7.606;2023-07-16T18:41:44;100060.47;;;20.98;50.58
25156;BME280;71253;51.496;7.606;2023-07-16T18:46:48;100062.25;;;20.98;49.36
25156;BME280;71253;51.496;7.606;2023-07-16T18:51:50;100063.03;;;20.80;49.95
25156;BME280;71253;51.496;7.606;2023-07-16T18:56:51;100062.88;;;20.62;51.30
25156;BME280;71253;51.496;7.606;2023-07-16T19:01:53;100067.16;;;20.65;51.47
25156;BME280;71253;51.496;7.606;2023-07-16T19:06:59;100066.69;;;20.32;52.88
25156;BME280;71253;51.496;7.606;2023-07-16T19:12:05;100068.03;;;19.98;53.95
25156;BME280;71253;51.496;7.606;2023-07-16T19:17:14;100063.84;;;19.92;53.61
25156;BME280;71253;51.496;7.606;2023-07-16T19:22:16;100074.59;;;19.86;53.72
25156;BME280;71253;51.496;7.606;2023-07-16T19:27:18;100073.38;;;19.72;53.77
25156;BME280;71253;51.496;7.606;2023-07-16T19:32:19;100080.91;;;19.57;54.59
25156;BME280;71253;51.496;7.606;2023-07-16T19:37:21;100086.16;;;19.57;54.51
25156;BME280;71253;51.496;7.606;2023-07-16T19:48:48;100098.66;;;19.49;54.88
25156;BME280;71253;51.496;7.606;2023-07-16T19:53:53;100101.56;;;19.41;54.88
25156;BME280;71253;51.496;7.606;2023-07-16T19:58:55;100104.38;;;19.35;54.45
25156;BME280;71253;51.496;7.606;2023-07-16T20:03:57;100123.41;;;19.42;54.20
25156;BME280;71253;51.496;7.606;2023-07-16T20:09:00;100125.50;;;19.57;53.92
25156;BME280;71253;51.496;7.606;2023-07-16T20:14:03;100120.09;;;19.62;53.78
25156;BME280;71253;51.496;7.606;2023-07-16T20:19:07;100121.38;;;19.50;54.19
25156;BME280;71253;51.496;7.606;2023-07-16T20:24:12;100131.00;;;19.50;58.17
25156;BME280;71253;51.496;7.606;2023-07-16T20:29:15;100126.44;;;19.30;55.50
25156;BME280;71253;51.496;7.606;2023-07-16T20:34:17;100121.47;;;19.22;55.28
25156;BME280;71253;51.496;7.606;2023-07-16T20:39:23;100116.72;;;19.08;55.19
25156;BME280;71253;51.496;7.606;2023-07-16T20:44:26;100123.53;;;18.87;56.83
25156;BME280;71253;51.496;7.606;2023-07-16T20:49:27;100136.72;;;19.11;55.31
25156;BME280;71253;51.496;7.606;2023-07-16T20:54:29;100142.41;;;19.24;55.60
25156;BME280;71253;51.496;7.606;2023-07-16T20:59:35;100129.34;;;19.22;55.48
25156;BME280;71253;51.496;7.606;2023-07-16T21:04:37;100120.03;;;19.38;54.28
25156;BME280;71253;51.496;7.606;2023-07-16T21:09:40;100127.59;;;19.48;53.86
25156;BME280;71253;51.496;7.606;2023-07-16T21:14:43;100127.38;;;19.54;53.38
25156;BME280;71253;51.496;7.606;2023-07-16T21:19:45;100145.84;;;19.51;58.89
25156;BME280;71253;51.496;7.606;2023-07-16T21:24:50;100139.84;;;18.96;60.55
25156;BME280;71253;51.496;7.606;2023-07-16T21:29:52;100140.47;;;18.48;62.42
25156;BME280;71253;51.496;7.606;2023-07-16T21:34:55;100141.91;;;18.58;59.75
25156;BME280;71253;51.496;7.606;2023-07-16T21:40:07;100142.09;;;18.52;62.49
25156;BME280;71253;51.496;7.606;2023-07-16T21:45:09;100138.41;;;18.29;63.29
25156;BME280;71253;51.496;7.606;2023-07-16T21:50:11;100147.22;;;18.27;61.94
25156;BME280;71253;51.496;7.606;2023-07-16T21:55:14;100151.44;;;18.32;62.02
25156;BME280;71253;51.496;7.606;2023-07-16T22:00:17;100150.69;;;17.98;66.10
25156;BME280;71253;51.496;7.606;2023-07-16T22:05:19;100149.78;;;17.66;68.11
25156;BME280;71253;51.496;7.606;2023-07-16T22:10:28;100146.00;;;17.45;66.52
25156;BME280;71253;51.496;7.606;2023-07-16T22:15:31;100151.47;;;17.36;66.42
25156;BME280;71253;51.496;7.606;2023-07-16T22:20:33;100139.00;;;17.13;70.98
25156;BME280;71253;51.496;7.606;2023-07-16T22:25:35;100149.66;;;17.04;66.91
25156;BME280;71253;51.496;7.606;2023-07-16T22:30:38;100147.72;;;17.12;65.49
25156;BME280;71253;51.496;7.606;2023-07-16T22:35:40;100145.03;;;17.15;65.16
25156;BME280;71253;51.496;7.606;2023-07-16T22:40:42;100151.22;;;17.11;66.33
25156;BME280;71253;51.496;7.606;2023-07-16T22:45:45;100150.47;;;17.07;64.98
25156;BME280;71253;51.496;7.606;2023-07-16T22:50:46;100151.50;;;17.00;65.48
25156;BME280;71253;51.496;7.606;2023-07-16T22:55:48;100140.13;;;17.03;65.18
25156;BME280;71253;51.496;7.606;2023-07-16T23:00:56;100148.72;;;17.06;64.55
25156;BME280;71253;51.496;7.606;2023-07-16T23:05:58;100144.75;;;17.26;63.77
25156;BME280;71253;51.496;7.606;2023-07-16T23:11:00;100146.16;;;17.05;68.57
25156;BME280;71253;51.496;7.606;2023-07-16T23:16:06;100153.44;;;16.53;70.99
25156;BME280;71253;51.496;7.606;2023-07-16T23:21:08;100155.50;;;15.99;72.75
25156;BME280;71253;51.496;7.606;2023-07-16T23:26:10;100159.59;;;15.67;74.19
25156;BME280;71253;51.496;7.606;2023-07-16T23:31:12;100152.06;;;15.49;74.84
25156;BME280;71253;51.496;7.606;2023-07-16T23:36:16;100154.78;;;15.43;74.78
25156;BME280;71253;51.496;7.606;2023-07-16T23:41:19;100149.59;;;15.41;74.46
25156;BME280;71253;51.496;7.606;2023-07-16T23:46:21;100143.84;;;15.70;72.57
25156;BME280;71253;51.496;7.606;2023-07-16T23:51:24;100145.47;;;15.77;71.92
25156;BME280;71253;51.496;7.606;2023-07-16T23:56:26;100150.69;;;15.77;72.35
